sensor_id;sensor_type;location;lat;lon;timestamp;pressure;altitude;pressure_sealevel;temperature;humidity
82041;BME280;71612;44.776;20.472;2023-08-21T00:00:34;100186.78;;;32.53;42.25
82041;BME280;71612;44.776;20.472;2023-08-21T00:02:59;100203.41;;;32.57;42.27
82041;BME280;71612;44.776;20.472;2023-08-21T00:05:24;100203.34;;;32.53;42.26
82041;BME280;71612;44.776;20.472;2023-08-21T00:07:50;100202.19;;;32.54;42.02
82041;BME280;71612;44.776;20.472;2023-08-21T00:10:16;100212.81;;;32.52;42.20
82041;BME280;71612;44.776;20.472;2023-08-21T00:12:42;100202.09;;;32.51;41.90
82041;BME280;71612;44.776;20.472;2023-08-21T00:15:08;100209.59;;;32.50;42.05
82041;BME280;71612;44.776;20.472;2023-08-21T00:17:35;100214.19;;;32.46;42.43
82041;BME280;71612;44.776;20.472;2023-08-21T00:20:00;100203.97;;;32.47;42.32
82041;BME280;71612;44.776;20.472;2023-08-21T00:22:27;100206.72;;;32.47;42.32
82041;BME280;71612;44.776;20.472;2023-08-21T00:24:52;100205.91;;;32.46;42.18
82041;BME280;71612;44.776;20.472;2023-08-21T00:27:18;100204.25;;;32.42;42.35
82041;BME280;71612;44.776;20.472;2023-08-21T00:29:43;100208.63;;;32.43;42.27
82041;BME280;71612;44.776;20.472;2023-08-21T00:32:08;100215.66;;;32.40;42.39
82041;BME280;71612;44.776;20.472;2023-08-21T00:34:34;100203.03;;;32.39;42.46
82041;BME280;71612;44.776;20.472;2023-08-21T00:36:59;100201.03;;;32.40;42.02
82041;BME280;71612;44.776;20.472;2023-08-21T00:39:25;100207.75;;;32.39;42.55
82041;BME280;71612;44.776;20.472;2023-08-21T00:41:50;100206.94;;;32.38;42.70
82041;BME280;71612;44.776;20.472;2023-08-21T00:44:16;100206.50;;;32.36;42.62
82041;BME280;71612;44.776;20.472;2023-08-21T00:46:41;100205.69;;;32.35;42.41
82041;BME280;71612;44.776;20.472;2023-08-21T00:49:07;100200.47;;;32.30;42.34
82041;BME280;71612;44.776;20.472;2023-08-21T00:51:33;100209.19;;;32.32;42.67
82041;BME280;71612;44.776;20.472;2023-08-21T00:53:59;100201.97;;;32.28;42.53
82041;BME280;71612;44.776;20.472;2023-08-21T00:56:24;100205.53;;;32.28;42.28
82041;BME280;71612;44.776;20.472;2023-08-21T00:58:50;100203.22;;;32.30;42.54
82041;BME280;71612;44.776;20.472;2023-08-21T01:01:17;100203.66;;;32.32;42.47
82041;BME280;71612;44.776;20.472;2023-08-21T01:03:44;100206.75;;;32.31;42.35
82041;BME280;71612;44.776;20.472;2023-08-21T01:06:09;100206.00;;;32.30;42.50
82041;BME280;71612;44.776;20.472;2023-08-21T01:08:53;100202.03;;;32.31;42.53
82041;BME280;71612;44.776;20.472;2023-08-21T01:11:26;100206.31;;;32.29;42.54
82041;BME280;71612;44.776;20.472;2023-08-21T01:16:32;100207.25;;;32.17;42.66
82041;BME280;71612;44.776;20.472;2023-08-21T01:18:58;100202.84;;;32.32;42.38
82041;BME280;71612;44.776;20.472;2023-08-21T01:21:25;100204.44;;;32.33;41.86
82041;BME280;71612;44.776;20.472;2023-08-21T01:23:50;100210.78;;;32.33;42.18
82041;BME280;71612;44.776;20.472;2023-08-21T01:26:16;100213.09;;;32.31;42.39
82041;BME280;71612;44.776;20.472;2023-08-21T01:28:42;100214.28;;;32.30;42.26
82041;BME280;71612;44.776;20.472;2023-08-21T01:33:51;100214.09;;;32.23;42.28
82041;BME280;71612;44.776;20.472;2023-08-21T01:36:18;100210.34;;;32.31;42.20
82041;BME280;71612;44.776;20.472;2023-08-21T01:38:44;100206.88;;;32.34;42.48
82041;BME280;71612;44.776;20.472;2023-08-21T01:41:10;100205.63;;;32.32;42.31
82041;BME280;71612;44.776;20.472;2023-08-21T01:43:35;100201.97;;;32.28;42.28
82041;BME280;71612;44.776;20.472;2023-08-21T01:46:01;100213.03;;;32.28;42.30
82041;BME280;71612;44.776;20.472;2023-08-21T01:48:28;100205.09;;;32.26;42.03
82041;BME280;71612;44.776;20.472;2023-08-21T01:50:54;100208.56;;;32.23;42.53
82041;BME280;71612;44.776;20.472;2023-08-21T01:53:19;100208.47;;;32.20;42.32
82041;BME280;71612;44.776;20.472;2023-08-21T01:55:44;100202.88;;;32.16;42.50
82041;BME280;71612;44.776;20.472;2023-08-21T01:58:10;100206.91;;;32.19;42.84
82041;BME280;71612;44.776;20.472;2023-08-21T02:00:35;100204.84;;;32.16;42.30
82041;BME280;71612;44.776;20.472;2023-08-21T02:03:01;100198.38;;;32.08;42.80
82041;BME280;71612;44.776;20.472;2023-08-21T02:05:26;100213.06;;;32.12;42.72
82041;BME280;71612;44.776;20.472;2023-08-21T02:07:51;100207.53;;;32.12;42.99
82041;BME280;71612;44.776;20.472;2023-08-21T02:10:17;100207.91;;;32.11;42.50
82041;BME280;71612;44.776;20.472;2023-08-21T02:12:43;100205.91;;;32.11;42.76
82041;BME280;71612;44.776;20.472;2023-08-21T02:15:08;100212.97;;;32.09;43.07
82041;BME280;71612;44.776;20.472;2023-08-21T02:17:35;100205.03;;;32.07;42.93
82041;BME280;71612;44.776;20.472;2023-08-21T02:20:00;100210.56;;;32.07;42.63
82041;BME280;71612;44.776;20.472;2023-08-21T02:22:26;100208.16;;;32.06;43.10
82041;BME280;71612;44.776;20.472;2023-08-21T02:24:51;100208.97;;;32.06;42.57
82041;BME280;71612;44.776;20.472;2023-08-21T02:27:17;100206.91;;;32.03;42.83
82041;BME280;71612;44.776;20.472;2023-08-21T02:29:42;100220.34;;;32.05;42.68
82041;BME280;71612;44.776;20.472;2023-08-21T02:32:07;100206.91;;;32.03;42.69
82041;BME280;71612;44.776;20.472;2023-08-21T02:34:33;100209.31;;;32.05;42.70
82041;BME280;71612;44.776;20.472;2023-08-21T02:36:58;100198.91;;;31.98;42.42
82041;BME280;71612;44.776;20.472;2023-08-21T02:39:23;100207.28;;;32.02;42.94
82041;BME280;71612;44.776;20.472;2023-08-21T02:41:49;100201.31;;;32.00;42.99
82041;BME280;71612;44.776;20.472;2023-08-21T02:44:14;100200.06;;;31.97;42.92
82041;BME280;71612;44.776;20.472;2023-08-21T02:46:40;100200.44;;;31.96;43.34
82041;BME280;71612;44.776;20.472;2023-08-21T02:49:05;100200.44;;;31.96;42.52
82041;BME280;71612;44.776;20.472;2023-08-21T02:51:31;100207.91;;;31.95;42.68
82041;BME280;71612;44.776;20.472;2023-08-21T02:53:57;100208.72;;;31.96;42.89
82041;BME280;71612;44.776;20.472;2023-08-21T02:56:22;100204.34;;;31.95;43.14
82041;BME280;71612;44.776;20.472;2023-08-21T02:58:47;100209.06;;;31.94;43.42
82041;BME280;71612;44.776;20.472;2023-08-21T03:01:13;100204.69;;;31.93;43.29
82041;BME280;71612;44.776;20.472;2023-08-21T03:03:39;100211.81;;;31.94;42.81
82041;BME280;71612;44.776;20.472;2023-08-21T03:06:04;100214.56;;;31.94;42.90
82041;BME280;71612;44.776;20.472;2023-08-21T03:08:29;100209.06;;;31.94;42.59
82041;BME280;71612;44.776;20.472;2023-08-21T03:10:55;100208.59;;;31.92;42.92
82041;BME280;71612;44.776;20.472;2023-08-21T03:13:20;100210.09;;;31.90;42.78
82041;BME280;71612;44.776;20.472;2023-08-21T03:15:46;100219.19;;;31.90;42.89
82041;BME280;71612;44.776;20.472;2023-08-21T03:18:11;100218.75;;;31.88;42.95
82041;BME280;71612;44.776;20.472;2023-08-21T03:20:36;100220.34;;;31.89;42.87
82041;BME280;71612;44.776;20.472;2023-08-21T03:23:02;100221.50;;;31.88;43.37
82041;BME280;71612;44.776;20.472;2023-08-21T03:25:28;100215.47;;;31.83;43.14
82041;BME280;71612;44.776;20.472;2023-08-21T03:27:53;100222.69;;;31.87;43.42
82041;BME280;71612;44.776;20.472;2023-08-21T03:30:18;100223.81;;;31.86;43.24
82041;BME280;71612;44.776;20.472;2023-08-21T03:32:44;100222.69;;;31.87;43.21
82041;BME280;71612;44.776;20.472;2023-08-21T03:35:10;100217.50;;;31.86;43.13
82041;BME280;71612;44.776;20.472;2023-08-21T03:37:35;100215.09;;;31.84;43.22
82041;BME280;71612;44.776;20.472;2023-08-21T03:40:02;100223.81;;;31.86;43.21
82041;BME280;71612;44.776;20.472;2023-08-21T03:42:28;100226.13;;;31.84;43.33
82041;BME280;71612;44.776;20.472;2023-08-21T03:44:54;100221.31;;;31.81;43.23
82041;BME280;71612;44.776;20.472;2023-08-21T03:47:19;100221.75;;;31.83;43.28
82041;BME280;71612;44.776;20.472;2023-08-21T03:49:44;100223.75;;;31.83;43.29
82041;BME280;71612;44.776;20.472;2023-08-21T03:52:10;100231.56;;;31.81;43.17
82041;BME280;71612;44.776;20.472;2023-08-21T03:54:35;100228.00;;;31.80;42.88
82041;BME280;71612;44.776;20.472;2023-08-21T03:57:01;100228.44;;;31.82;43.03
82041;BME280;71612;44.776;20.472;2023-08-21T03:59:26;100229.97;;;31.80;43.27
82041;BME280;71612;44.776;20.472;2023-08-21T04:01:53;100235.84;;;31.78;43.28
82041;BME280;71612;44.776;20.472;2023-08-21T04:04:19;100230.69;;;31.77;43.39
82041;BME280;71612;44.776;20.472;2023-08-21T04:06:44;100219.81;;;31.68;42.99
82041;BME280;71612;44.776;20.472;2023-08-21T04:09:10;100236.53;;;31.75;43.19
82041;BME280;71612;44.776;20.472;2023-08-21T04:11:35;100232.09;;;31.71;43.08
82041;BME280;71612;44.776;20.472;2023-08-21T04:14:01;100244.00;;;31.75;43.05
82041;BME280;71612;44.776;20.472;2023-08-21T04:16:27;100229.69;;;31.69;43.36
82041;BME280;71612;44.776;20.472;2023-08-21T04:18:53;100237.59;;;31.71;43.22
82041;BME280;71612;44.776;20.472;2023-08-21T04:21:18;100236.47;;;31.72;43.18
82041;BME280;71612;44.776;20.472;2023-08-21T04:23:44;100244.75;;;31.72;43.64
82041;BME280;71612;44.776;20.472;2023-08-21T04:26:13;100252.22;;;31.71;43.77
82041;BME280;71612;44.776;20.472;2023-08-21T04:28:38;100243.41;;;31.66;43.32
82041;BME280;71612;44.776;20.472;2023-08-21T04:31:05;100247.50;;;31.72;42.96
82041;BME280;71612;44.776;20.472;2023-08-21T04:33:31;100250.63;;;31.70;43.34
82041;BME280;71612;44.776;20.472;2023-08-21T04:35:56;100254.16;;;31.71;43.31
82041;BME280;71612;44.776;20.472;2023-08-21T04:38:22;100252.13;;;31.68;43.35
82041;BME280;71612;44.776;20.472;2023-08-21T04:40:47;100253.38;;;31.70;43.02
82041;BME280;71612;44.776;20.472;2023-08-21T04:43:13;100251.31;;;31.67;43.12
82041;BME280;71612;44.776;20.472;2023-08-21T04:45:38;100250.16;;;31.68;43.61
82041;BME280;71612;44.776;20.472;2023-08-21T04:48:05;100253.28;;;31.67;43.22
82041;BME280;71612;44.776;20.472;2023-08-21T04:50:30;100255.22;;;31.66;43.73
82041;BME280;71612;44.776;20.472;2023-08-21T04:52:55;100245.72;;;31.64;43.58
82041;BME280;71612;44.776;20.472;2023-08-21T04:55:21;100254.69;;;31.60;43.90
82041;BME280;71612;44.776;20.472;2023-08-21T04:57:47;100260.28;;;31.64;43.33
82041;BME280;71612;44.776;20.472;2023-08-21T05:00:12;100256.38;;;31.65;43.56
82041;BME280;71612;44.776;20.472;2023-08-21T05:02:38;100260.28;;;31.64;43.69
82041;BME280;71612;44.776;20.472;2023-08-21T05:05:04;100263.41;;;31.63;43.90
82041;BME280;71612;44.776;20.472;2023-08-21T05:07:30;100265.34;;;31.62;43.65
82041;BME280;71612;44.776;20.472;2023-08-21T05:09:59;100266.97;;;31.63;43.81
82041;BME280;71612;44.776;20.472;2023-08-21T05:12:24;100267.34;;;31.62;43.13
82041;BME280;71612;44.776;20.472;2023-08-21T05:14:51;100262.16;;;31.60;43.54
82041;BME280;71612;44.776;20.472;2023-08-21T05:17:16;100270.09;;;31.62;43.66
82041;BME280;71612;44.776;20.472;2023-08-21T05:19:42;100275.94;;;31.60;43.82
82041;BME280;71612;44.776;20.472;2023-08-21T05:22:07;100280.31;;;31.61;43.54
82041;BME280;71612;44.776;20.472;2023-08-21T05:24:32;100276.41;;;31.62;43.21
82041;BME280;71612;44.776;20.472;2023-08-21T05:26:58;100283.88;;;31.62;43.90
82041;BME280;71612;44.776;20.472;2023-08-21T05:29:23;100276.66;;;31.57;43.33
82041;BME280;71612;44.776;20.472;2023-08-21T05:31:49;100288.59;;;31.61;43.47
82041;BME280;71612;44.776;20.472;2023-08-21T05:34:14;100289.75;;;31.60;43.72
82041;BME280;71612;44.776;20.472;2023-08-21T05:36:40;100276.31;;;31.58;43.57
82041;BME280;71612;44.776;20.472;2023-08-21T05:39:05;100283.88;;;31.62;43.45
82041;BME280;71612;44.776;20.472;2023-08-21T05:41:31;100285.03;;;31.60;43.83
82041;BME280;71612;44.776;20.472;2023-08-21T05:43:57;100289.75;;;31.60;43.59
82041;BME280;71612;44.776;20.472;2023-08-21T05:46:22;100273.00;;;31.53;43.89
82041;BME280;71612;44.776;20.472;2023-08-21T05:48:48;100284.94;;;31.57;43.44
82041;BME280;71612;44.776;20.472;2023-08-21T05:51:13;100289.03;;;31.63;43.36
82041;BME280;71612;44.776;20.472;2023-08-21T05:53:39;100290.91;;;31.59;43.44
82041;BME280;71612;44.776;20.472;2023-08-21T05:56:04;100287.78;;;31.60;43.40
82041;BME280;71612;44.776;20.472;2023-08-21T05:58:29;100285.28;;;31.55;43.63
82041;BME280;71612;44.776;20.472;2023-08-21T06:00:57;100295.63;;;31.58;43.68
82041;BME280;71612;44.776;20.472;2023-08-21T06:03:22;100303.19;;;31.62;43.41
82041;BME280;71612;44.776;20.472;2023-08-21T06:05:47;100290.47;;;31.57;43.28
82041;BME280;71612;44.776;20.472;2023-08-21T06:08:13;100295.69;;;31.62;43.15
82041;BME280;71612;44.776;20.472;2023-08-21T06:10:38;100300.06;;;31.63;43.61
82041;BME280;71612;44.776;20.472;2023-08-21T06:13:04;100295.38;;;31.64;43.52
82041;BME280;71612;44.776;20.472;2023-08-21T06:15:29;100302.03;;;31.63;43.57
82041;BME280;71612;44.776;20.472;2023-08-21T06:17:54;100287.34;;;31.58;44.00
82041;BME280;71612;44.776;20.472;2023-08-21T06:20:20;100295.25;;;31.60;44.22
82041;BME280;71612;44.776;20.472;2023-08-21T06:22:46;100285.41;;;31.59;43.51
82041;BME280;71612;44.776;20.472;2023-08-21T06:25:11;100299.63;;;31.61;43.80
82041;BME280;71612;44.776;20.472;2023-08-21T06:27:38;100298.47;;;31.62;43.29
82041;BME280;71612;44.776;20.472;2023-08-21T06:30:03;100302.84;;;31.63;43.42
82041;BME280;71612;44.776;20.472;2023-08-21T06:32:29;100316.25;;;31.65;44.03
82041;BME280;71612;44.776;20.472;2023-08-21T06:34:54;100309.94;;;31.64;44.02
82041;BME280;71612;44.776;20.472;2023-08-21T06:37:20;100317.00;;;31.62;43.66
82041;BME280;71612;44.776;20.472;2023-08-21T06:39:45;100317.44;;;31.64;43.33
82041;BME280;71612;44.776;20.472;2023-08-21T06:42:10;100320.19;;;31.64;43.85
82041;BME280;71612;44.776;20.472;2023-08-21T06:44:36;100317.00;;;31.62;43.38
82041;BME280;71612;44.776;20.472;2023-08-21T06:47:01;100320.53;;;31.62;43.60
82041;BME280;71612;44.776;20.472;2023-08-21T06:49:27;100321.34;;;31.63;43.99
82041;BME280;71612;44.776;20.472;2023-08-21T06:51:52;100318.56;;;31.63;43.78
82041;BME280;71612;44.776;20.472;2023-08-21T06:54:17;100310.09;;;31.55;43.93
82041;BME280;71612;44.776;20.472;2023-08-21T06:56:43;100313.41;;;31.61;43.94
82041;BME280;71612;44.776;20.472;2023-08-21T06:59:09;100312.97;;;31.59;43.77
82041;BME280;71612;44.776;20.472;2023-08-21T07:01:34;100315.38;;;31.60;43.51
82041;BME280;71612;44.776;20.472;2023-08-21T07:04:00;100320.25;;;31.51;38.83
82041;BME280;71612;44.776;20.472;2023-08-21T07:06:27;100316.06;;;31.30;36.32
82041;BME280;71612;44.776;20.472;2023-08-21T07:08:54;100318.88;;;31.06;33.93
82041;BME280;71612;44.776;20.472;2023-08-21T07:11:20;100313.44;;;30.81;32.42
82041;BME280;71612;44.776;20.472;2023-08-21T07:13:45;100324.94;;;30.59;30.93
82041;BME280;71612;44.776;20.472;2023-08-21T07:16:10;100323.09;;;30.39;30.10
82041;BME280;71612;44.776;20.472;2023-08-21T07:18:36;100322.84;;;30.20;28.95
82041;BME280;71612;44.776;20.472;2023-08-21T07:21:02;100316.03;;;29.93;27.09
82041;BME280;71612;44.776;20.472;2023-08-21T07:23:29;100325.09;;;29.82;26.61
82041;BME280;71612;44.776;20.472;2023-08-21T07:25:55;100329.56;;;29.66;26.54
82041;BME280;71612;44.776;20.472;2023-08-21T07:28:20;100332.19;;;29.50;26.50
82041;BME280;71612;44.776;20.472;2023-08-21T07:30:46;100337.63;;;29.38;25.67
82041;BME280;71612;44.776;20.472;2023-08-21T07:33:11;100331.63;;;29.24;24.70
82041;BME280;71612;44.776;20.472;2023-08-21T07:35:36;100328.63;;;29.08;24.41
82041;BME280;71612;44.776;20.472;2023-08-21T07:38:02;100326.50;;;28.93;24.15
82041;BME280;71612;44.776;20.472;2023-08-21T07:40:28;100329.34;;;28.76;24.33
82041;BME280;71612;44.776;20.472;2023-08-21T07:42:53;100330.75;;;28.61;24.20
82041;BME280;71612;44.776;20.472;2023-08-21T07:45:19;100329.94;;;28.52;24.31
82041;BME280;71612;44.776;20.472;2023-08-21T07:47:44;100332.28;;;28.42;24.39
82041;BME280;71612;44.776;20.472;2023-08-21T07:50:10;100334.84;;;28.38;25.45
82041;BME280;71612;44.776;20.472;2023-08-21T07:52:36;100337.34;;;28.31;25.02
82041;BME280;71612;44.776;20.472;2023-08-21T07:55:01;100336.22;;;28.24;24.72
82041;BME280;71612;44.776;20.472;2023-08-21T07:57:28;100329.78;;;28.20;24.96
82041;BME280;71612;44.776;20.472;2023-08-21T07:59:54;100329.81;;;28.11;25.03
82041;BME280;71612;44.776;20.472;2023-08-21T08:02:19;100336.94;;;28.12;25.90
82041;BME280;71612;44.776;20.472;2023-08-21T08:04:46;100333.22;;;28.08;28.47
82041;BME280;71612;44.776;20.472;2023-08-21T08:07:11;100331.28;;;28.09;32.40
82041;BME280;71612;44.776;20.472;2023-08-21T08:09:37;100333.22;;;28.08;30.08
82041;BME280;71612;44.776;20.472;2023-08-21T08:12:02;100331.66;;;27.99;28.05
82041;BME280;71612;44.776;20.472;2023-08-21T08:14:28;100341.16;;;27.92;27.00
82041;BME280;71612;44.776;20.472;2023-08-21T08:16:53;100338.94;;;27.77;26.43
82041;BME280;71612;44.776;20.472;2023-08-21T08:19:19;100334.69;;;27.88;27.18
82041;BME280;71612;44.776;20.472;2023-08-21T08:21:44;100333.22;;;28.08;28.37
82041;BME280;71612;44.776;20.472;2023-08-21T08:24:09;100324.31;;;28.20;29.55
82041;BME280;71612;44.776;20.472;2023-08-21T08:26:35;100336.44;;;28.10;27.84
82041;BME280;71612;44.776;20.472;2023-08-21T08:29:01;100331.44;;;27.95;26.53
82041;BME280;71612;44.776;20.472;2023-08-21T08:31:26;100323.63;;;27.76;25.71
82041;BME280;71612;44.776;20.472;2023-08-21T08:33:53;100329.59;;;27.61;25.15
82041;BME280;71612;44.776;20.472;2023-08-21T08:36:19;100323.34;;;27.44;24.54
82041;BME280;71612;44.776;20.472;2023-08-21T08:38:45;100327.38;;;27.29;25.27
82041;BME280;71612;44.776;20.472;2023-08-21T08:41:14;100330.25;;;27.50;26.27
82041;BME280;71612;44.776;20.472;2023-08-21T08:43:42;100311.56;;;27.60;27.09
82041;BME280;71612;44.776;20.472;2023-08-21T08:46:08;100320.00;;;27.93;27.28
82041;BME280;71612;44.776;20.472;2023-08-21T08:48:35;100317.72;;;28.12;28.56
82041;BME280;71612;44.776;20.472;2023-08-21T08:51:02;100325.03;;;28.37;29.05
82041;BME280;71612;44.776;20.472;2023-08-21T08:53:29;100309.94;;;28.52;29.51
82041;BME280;71612;44.776;20.472;2023-08-21T08:55:55;100313.88;;;28.72;29.66
82041;BME280;71612;44.776;20.472;2023-08-21T08:58:20;100313.41;;;28.90;29.75
82041;BME280;71612;44.776;20.472;2023-08-21T09:00:45;100316.25;;;29.02;29.92
82041;BME280;71612;44.776;20.472;2023-08-21T09:03:11;100312.69;;;28.81;27.66
82041;BME280;71612;44.776;20.472;2023-08-21T09:05:39;100312.53;;;28.57;26.33
82041;BME280;71612;44.776;20.472;2023-08-21T09:08:12;100309.09;;;28.31;25.57
82041;BME280;71612;44.776;20.472;2023-08-21T09:10:39;100308.88;;;28.07;25.26
82041;BME280;71612;44.776;20.472;2023-08-21T09:13:14;100308.28;;;27.84;24.60
82041;BME280;71612;44.776;20.472;2023-08-21T09:15:41;100311.38;;;27.65;24.35
82041;BME280;71612;44.776;20.472;2023-08-21T09:18:11;100313.03;;;27.49;24.12
82041;BME280;71612;44.776;20.472;2023-08-21T09:20:37;100309.00;;;27.30;23.68
82041;BME280;71612;44.776;20.472;2023-08-21T09:23:03;100284.00;;;27.31;25.56
82041;BME280;71612;44.776;20.472;2023-08-21T09:25:34;100310.09;;;27.63;25.66
82041;BME280;71612;44.776;20.472;2023-08-21T09:28:05;100304.41;;;27.85;26.11
82041;BME280;71612;44.776;20.472;2023-08-21T09:30:44;100298.38;;;28.09;27.38
82041;BME280;71612;44.776;20.472;2023-08-21T09:33:10;100301.03;;;28.26;27.64
82041;BME280;71612;44.776;20.472;2023-08-21T09:35:35;100293.16;;;28.45;28.61
82041;BME280;71612;44.776;20.472;2023-08-21T09:38:01;100288.28;;;28.59;29.14
82041;BME280;71612;44.776;20.472;2023-08-21T09:40:27;100289.44;;;28.79;29.32
82041;BME280;71612;44.776;20.472;2023-08-21T09:42:53;100279.47;;;28.74;29.24
82041;BME280;71612;44.776;20.472;2023-08-21T09:45:23;100275.63;;;28.66;29.25
82041;BME280;71612;44.776;20.472;2023-08-21T09:47:55;100282.06;;;28.71;33.08
82041;BME280;71612;44.776;20.472;2023-08-21T09:50:22;100295.00;;;28.70;35.77
82041;BME280;71612;44.776;20.472;2023-08-21T09:52:48;100289.22;;;28.84;35.94
82041;BME280;71612;44.776;20.472;2023-08-21T09:55:14;100293.34;;;28.98;36.10
82041;BME280;71612;44.776;20.472;2023-08-21T09:57:40;100284.78;;;29.12;36.79
82041;BME280;71612;44.776;20.472;2023-08-21T10:00:09;100285.00;;;29.27;36.34
82041;BME280;71612;44.776;20.472;2023-08-21T10:02:42;100279.22;;;29.41;36.54
82041;BME280;71612;44.776;20.472;2023-08-21T10:05:22;100285.22;;;29.55;36.96
82041;BME280;71612;44.776;20.472;2023-08-21T10:07:49;100277.69;;;29.64;36.49
82041;BME280;71612;44.776;20.472;2023-08-21T10:10:16;100272.09;;;29.73;37.13
82041;BME280;71612;44.776;20.472;2023-08-21T10:12:42;100274.75;;;29.81;37.35
82041;BME280;71612;44.776;20.472;2023-08-21T10:15:09;100267.22;;;29.90;37.12
82041;BME280;71612;44.776;20.472;2023-08-21T10:17:36;100275.81;;;30.01;37.51
82041;BME280;71612;44.776;20.472;2023-08-21T10:20:06;100262.63;;;30.06;36.80
82041;BME280;71612;44.776;20.472;2023-08-21T10:25:22;100271.56;;;30.15;37.67
82041;BME280;71612;44.776;20.472;2023-08-21T10:27:56;100252.91;;;30.33;37.31
82041;BME280;71612;44.776;20.472;2023-08-21T10:30:27;100271.25;;;30.41;37.62
82041;BME280;71612;44.776;20.472;2023-08-21T10:32:56;100262.66;;;30.43;37.33
82041;BME280;71612;44.776;20.472;2023-08-21T10:35:24;100254.88;;;30.45;36.80
82041;BME280;71612;44.776;20.472;2023-08-21T10:38:11;100255.78;;;30.49;37.42
82041;BME280;71612;44.776;20.472;2023-08-21T10:40:39;100257.03;;;30.27;33.94
82041;BME280;71612;44.776;20.472;2023-08-21T10:46:10;100267.13;;;29.54;30.22
82041;BME280;71612;44.776;20.472;2023-08-21T10:48:36;100258.53;;;29.23;28.62
82041;BME280;71612;44.776;20.472;2023-08-21T10:51:05;100258.16;;;28.92;27.48
82041;BME280;71612;44.776;20.472;2023-08-21T10:53:31;100255.63;;;28.66;26.97
82041;BME280;71612;44.776;20.472;2023-08-21T10:56:01;100254.63;;;28.41;26.29
82041;BME280;71612;44.776;20.472;2023-08-21T10:58:33;100256.53;;;28.20;25.80
82041;BME280;71612;44.776;20.472;2023-08-21T11:00:59;100256.78;;;27.98;25.34
82041;BME280;71612;44.776;20.472;2023-08-21T11:03:25;100254.44;;;27.79;25.19
82041;BME280;71612;44.776;20.472;2023-08-21T11:06:05;100248.66;;;27.64;24.86
82041;BME280;71612;44.776;20.472;2023-08-21T11:08:32;100245.75;;;27.69;26.03
82041;BME280;71612;44.776;20.472;2023-08-21T11:10:58;100239.25;;;27.82;27.20
82041;BME280;71612;44.776;20.472;2023-08-21T11:13:24;100253.03;;;28.11;27.08
82041;BME280;71612;44.776;20.472;2023-08-21T11:16:06;100252.06;;;28.36;28.27
82041;BME280;71612;44.776;20.472;2023-08-21T11:18:36;100247.41;;;28.57;28.25
82041;BME280;71612;44.776;20.472;2023-08-21T11:21:08;100245.69;;;28.74;28.72
82041;BME280;71612;44.776;20.472;2023-08-21T11:23:35;100240.41;;;28.89;29.35
82041;BME280;71612;44.776;20.472;2023-08-21T11:26:01;100234.31;;;29.04;28.81
82041;BME280;71612;44.776;20.472;2023-08-21T11:28:29;100231.41;;;29.21;30.16
82041;BME280;71612;44.776;20.472;2023-08-21T11:30:55;100236.63;;;29.35;30.19
82041;BME280;71612;44.776;20.472;2023-08-21T11:33:21;100240.19;;;29.48;29.95
82041;BME280;71612;44.776;20.472;2023-08-21T11:35:46;100234.59;;;29.56;30.01
82041;BME280;71612;44.776;20.472;2023-08-21T11:38:17;100231.50;;;29.70;30.60
82041;BME280;71612;44.776;20.472;2023-08-21T11:40:55;100235.81;;;29.79;30.92
82041;BME280;71612;44.776;20.472;2023-08-21T11:43:22;100236.38;;;29.85;31.33
82041;BME280;71612;44.776;20.472;2023-08-21T11:45:47;100229.97;;;29.93;31.12
82041;BME280;71612;44.776;20.472;2023-08-21T11:48:13;100220.81;;;30.01;31.10
82041;BME280;71612;44.776;20.472;2023-08-21T11:50:39;100217.38;;;30.04;31.57
82041;BME280;71612;44.776;20.472;2023-08-21T11:53:05;100213.34;;;30.13;31.54
82041;BME280;71612;44.776;20.472;2023-08-21T11:55:32;100212.75;;;30.20;31.85
82041;BME280;71612;44.776;20.472;2023-08-21T11:58:01;100215.28;;;30.25;32.37
82041;BME280;71612;44.776;20.472;2023-08-21T12:00:30;100201.53;;;30.25;32.42
82041;BME280;71612;44.776;20.472;2023-08-21T12:03:18;100204.28;;;30.37;32.09
82041;BME280;71612;44.776;20.472;2023-08-21T12:05:44;100204.41;;;30.41;32.50
82041;BME280;71612;44.776;20.472;2023-08-21T12:08:09;100195.78;;;30.42;33.19
82041;BME280;71612;44.776;20.472;2023-08-21T12:10:35;100207.47;;;30.51;32.64
82041;BME280;71612;44.776;20.472;2023-08-21T12:13:01;100208.38;;;30.55;33.66
82041;BME280;71612;44.776;20.472;2023-08-21T12:15:26;100198.94;;;30.56;33.69
82041;BME280;71612;44.776;20.472;2023-08-21T12:17:52;100188.50;;;30.62;33.69
82041;BME280;71612;44.776;20.472;2023-08-21T12:20:17;100188.69;;;30.69;33.68
82041;BME280;71612;44.776;20.472;2023-08-21T12:22:43;100200.44;;;30.66;33.23
82041;BME280;71612;44.776;20.472;2023-08-21T12:25:09;100197.50;;;30.35;31.06
82041;BME280;71612;44.776;20.472;2023-08-21T12:27:35;100188.25;;;30.03;29.47
82041;BME280;71612;44.776;20.472;2023-08-21T12:30:03;100185.00;;;29.65;28.39
82041;BME280;71612;44.776;20.472;2023-08-21T12:32:28;100181.31;;;29.36;27.56
82041;BME280;71612;44.776;20.472;2023-08-21T12:34:53;100184.75;;;29.13;26.44
82041;BME280;71612;44.776;20.472;2023-08-21T12:37:19;100169.91;;;28.81;26.06
82041;BME280;71612;44.776;20.472;2023-08-21T12:39:44;100179.88;;;28.65;25.88
82041;BME280;71612;44.776;20.472;2023-08-21T12:42:10;100172.47;;;28.36;24.91
82041;BME280;71612;44.776;20.472;2023-08-21T12:44:35;100180.66;;;28.24;25.02
82041;BME280;71612;44.776;20.472;2023-08-21T12:47:01;100174.34;;;28.03;24.38